Salem, UT (84653)

9:25 AM MDT on October 02, 2014 (GMT -0600)
Ironrod | Change Station
CLOSE
Current Station
Personal Weather Station
Location: Elk Ridge, UT
Elevation: 5420 ft
Nearby Weather Stations

Elev 5420 ft 40.01 °N, 111.68 °W | Updated 4 minutes ago

Partly Cloudy
Partly Cloudy
39.4 °F
Feels Like 39 °F
N
1.0
Wind Variable Wind from ESE
Gusts 4.0 mph

Today
High -- | Low -- °F
--% Chance of Precip.
Yesterday
High -- | Low -- °F
Precip. -- in
7:23 AM 7:07 PM
First Quarter, 59% visible
Pressure 30.33 in
Visibility 15.0 miles
Clouds Scattered Clouds 15000 ft
Windchill 39 °F
Dew Point 34 °F
Humidity 81%
Rainfall 0.00 in
Snow Depth 0 in , 0 in , 1 in
UV 1 out of 12
Pollen 3.40 out of 12
Air Quality Not available.
Flu Activity Not available.
METAR KPVU 021449Z 14005KT 15SM SCT150 04/M01 A3033

More Conditions Fewer Conditions

Pressure 30.33 in
Visibility 15.0 miles
Clouds Scattered Clouds 15000 ft
Windchill 39 °F
Dew Point 34 °F
Humidity 81%
Rainfall 0.00 in
Snow Depth 0 in , 0 in , 1 in
UV 1 out of 12
Pollen 3.40 out of 12
Air Quality Not available.
Flu Activity Not available.
METAR KPVU 021449Z 14005KT 15SM SCT150 04/M01 A3033

More Conditions Fewer Conditions

10-Day Weather Forecast

Almanac

Astronomy

Oct. 02, 2014 Rise Set
Actual Time 7:23 AM MDT 7:07 PM MDT
Civil Twilight 6:56 AM MDT 7:34 PM MDT
Nautical Twilight 6:25 AM MDT 8:05 PM MDT
Astronomical Twilight 5:53 AM MDT 8:37 PM MDT
Moon 3:16 PM MDT 12:44 AM MDT
Length of Visible Light 12h 37m
Length of Day
11h 43m
Tomorrow will be 2m 37s shorter.
First Quarter, 59% of the Moon is Illuminated
Today
First Quarter
Oct 8
Full
Oct 15
Last Quarter
Oct 23
New
Oct 30
First Quarter

Today's Extremes

State Highs State Lows

Community

WunderPhotos

Upload Photos

1,758,255 photos uploaded!

WunderBlogs® & News

By Dr. Jeff Masters
Director of Meteorology, Weather Underground
By Kari Strenfel
Meteorologist, Weather Underground
By Christopher C. Burt
Weather Historian, Weather Underground
October 2, 2014
October 2, 2014
October 2, 2014

Nearby

Snow Depth

Station Depth Elevation
Indian Canyon 0 in 9100 ft
Dill's Camp 0 in 9200 ft
Clayton Springs 1 in 10000 ft
East Willow Creek 0 in 8250 ft
Widtsoe #3 0 in 9500 ft

Earthquake Activity

City Distance Mag. Time & Date
No recent earthquake activity has been reported nearby.
Minimum magnitude displayed is 2.5.

Coastal Water Temperatures

Place Temperature
No Stations Reporting

Nearby Weather Stations